createdAt,value
2019-04-30T00:01:20.371Z,3.53
2019-04-30T00:04:01.502Z,4.43
2019-04-30T00:06:34.659Z,5.20
2019-04-30T00:09:00.305Z,4.40
2019-04-30T00:11:28.871Z,4.17
2019-04-30T00:13:58.964Z,5.13
2019-04-30T00:16:31.079Z,6.73
2019-04-30T00:19:00.742Z,4.40
2019-04-30T00:21:28.031Z,6.77
2019-04-30T00:24:00.906Z,5.73
2019-04-30T00:26:26.677Z,4.90
2019-04-30T00:28:55.471Z,4.90
2019-04-30T00:31:27.375Z,5.17
2019-04-30T00:33:57.766Z,4.70
2019-04-30T00:36:29.040Z,4.63
2019-04-30T00:38:54.892Z,5.77
2019-04-30T00:41:23.377Z,4.70
2019-04-30T00:43:51.855Z,4.77
2019-04-30T00:46:24.899Z,4.73
2019-04-30T00:48:50.720Z,4.77
2019-04-30T00:51:21.365Z,5.47
2019-04-30T00:53:51.174Z,5.33
2019-04-30T00:56:23.908Z,4.80
2019-04-30T00:58:50.289Z,5.30
2019-04-30T01:01:43.558Z,5.57
2019-04-30T01:04:24.663Z,4.97
2019-04-30T01:06:53.344Z,5.50
2019-04-30T01:09:21.806Z,4.70
2019-04-30T01:11:50.280Z,4.47
2019-04-30T01:14:18.967Z,5.50
2019-04-30T01:16:49.232Z,4.13
2019-04-30T01:19:29.548Z,5.17
2019-04-30T01:21:49.163Z,4.90
2019-04-30T01:24:19.000Z,5.20
2019-04-30T01:26:48.612Z,5.30
2019-04-30T01:29:19.236Z,5.73
2019-04-30T01:31:48.809Z,4.50
2019-04-30T01:34:19.437Z,4.70
2019-04-30T01:36:52.111Z,5.40
2019-04-30T01:39:19.548Z,5.20
2019-04-30T01:41:48.785Z,4.97
2019-04-30T01:44:17.283Z,5.10
2019-04-30T01:46:48.322Z,5.27
2019-04-30T01:49:15.988Z,4.80
2019-04-30T01:51:44.464Z,5.07
2019-04-30T01:54:13.785Z,5.73
2019-04-30T01:57:01.160Z,5.83
2019-04-30T01:59:48.687Z,5.30
2019-04-30T02:02:18.537Z,5.63
2019-04-30T02:04:49.118Z,5.63
2019-04-30T02:07:18.996Z,5.40
2019-04-30T02:09:48.896Z,5.07
2019-04-30T02:12:21.670Z,5.83
2019-04-30T02:14:49.434Z,5.17
2019-04-30T02:17:19.268Z,4.83
2019-04-30T02:19:55.475Z,4.83
2019-04-30T02:22:18.922Z,4.77
2019-04-30T02:24:48.603Z,5.10
2019-04-30T02:27:19.177Z,5.33
2019-04-30T02:29:49.412Z,5.10
2019-04-30T02:32:20.563Z,4.90
2019-04-30T02:34:54.206Z,5.13
2019-04-30T02:37:25.936Z,4.43
2019-04-30T02:39:54.399Z,5.60
2019-04-30T02:42:22.864Z,5.53
2019-04-30T02:44:51.393Z,5.70
2019-04-30T02:47:20.422Z,4.87
2019-04-30T02:49:50.054Z,5.60
2019-04-30T02:52:19.657Z,4.97
2019-04-30T02:54:49.963Z,6.13
2019-04-30T02:57:22.951Z,6.57
2019-04-30T03:00:05.627Z,5.60
2019-04-30T03:02:34.290Z,6.47
2019-04-30T03:05:02.820Z,6.27
2019-04-30T03:07:31.258Z,7.47
2019-04-30T03:10:00.163Z,6.70
2019-04-30T03:12:33.116Z,8.33
2019-04-30T03:15:00.415Z,6.50
2019-04-30T03:17:50.728Z,7.23
2019-04-30T03:20:44.605Z,9.30
2019-04-30T03:23:13.229Z,10.87
2019-04-30T03:25:41.902Z,9.63
2019-04-30T03:28:10.604Z,8.47
2019-04-30T03:30:41.935Z,11.77
2019-04-30T03:33:12.876Z,11.47
2019-04-30T03:35:46.683Z,11.47
2019-04-30T03:38:10.171Z,10.33
2019-04-30T03:40:40.439Z,13.07
2019-04-30T03:43:10.334Z,11.27
2019-04-30T03:45:40.239Z,10.20
2019-04-30T03:48:10.171Z,10.57
2019-04-30T03:50:50.191Z,11.57
2019-04-30T03:53:10.466Z,9.90
2019-04-30T03:55:40.059Z,8.17
2019-04-30T03:58:09.296Z,9.97
2019-04-30T04:01:00.161Z,9.17
2019-04-30T04:03:29.696Z,11.03
2019-04-30T04:06:21.615Z,11.93
2019-04-30T04:09:05.767Z,9.87
2019-04-30T04:11:39.657Z,11.50
2019-04-30T04:14:09.330Z,9.87
2019-04-30T04:16:40.567Z,10.07
2019-04-30T04:19:09.638Z,12.57
2019-04-30T04:21:39.295Z,11.40
2019-04-30T04:24:10.412Z,11.53
2019-04-30T04:26:43.312Z,11.17
2019-04-30T04:29:12.057Z,11.70
2019-04-30T04:31:39.545Z,11.17
2019-04-30T04:34:09.342Z,12.00
2019-04-30T04:36:39.993Z,10.90
2019-04-30T04:39:09.802Z,11.27
2019-04-30T04:41:39.881Z,11.67
2019-04-30T04:44:10.004Z,12.30
2019-04-30T04:46:40.219Z,10.77
2019-04-30T04:49:09.087Z,12.23
2019-04-30T04:51:41.185Z,11.73
2019-04-30T04:54:10.407Z,12.27
2019-04-30T04:56:40.000Z,11.87
2019-04-30T04:59:10.264Z,11.93
2019-04-30T05:01:38.917Z,14.10
2019-04-30T05:04:11.452Z,14.63
2019-04-30T05:06:39.504Z,14.53
2019-04-30T05:09:09.731Z,14.40
2019-04-30T05:11:39.561Z,11.93
2019-04-30T05:14:08.394Z,16.57
2019-04-30T05:16:38.902Z,13.93
2019-04-30T05:19:08.889Z,15.40
2019-04-30T05:21:42.677Z,13.90
2019-04-30T05:24:09.099Z,14.13
2019-04-30T05:26:38.682Z,14.33
2019-04-30T05:29:07.188Z,17.30
2019-04-30T05:31:35.767Z,15.47
2019-04-30T05:34:06.379Z,14.43
2019-04-30T05:36:34.612Z,12.97
2019-04-30T05:39:03.427Z,13.37
2019-04-30T05:41:31.930Z,16.60
2019-04-30T05:44:00.431Z,15.23
2019-04-30T05:46:29.818Z,13.17
2019-04-30T05:48:59.429Z,16.73
2019-04-30T05:51:28.931Z,16.87
2019-04-30T05:53:59.276Z,15.57
2019-04-30T05:56:30.233Z,19.10
2019-04-30T05:58:59.322Z,20.27
2019-04-30T06:01:29.517Z,17.13
2019-04-30T06:03:59.489Z,19.67
2019-04-30T06:06:29.017Z,18.37
2019-04-30T06:09:14.964Z,13.77
2019-04-30T06:11:59.113Z,19.03
2019-04-30T06:14:48.022Z,23.20
2019-04-30T06:17:10.141Z,21.80
2019-04-30T06:19:39.187Z,19.77
2019-04-30T06:22:10.507Z,18.57
2019-04-30T06:24:39.524Z,21.47
2019-04-30T06:27:10.592Z,19.10
2019-04-30T06:29:39.095Z,21.80
2019-04-30T06:32:08.652Z,20.10
2019-04-30T06:34:39.533Z,20.23
2019-04-30T06:37:09.489Z,21.37
2019-04-30T06:39:38.603Z,18.63
2019-04-30T06:42:12.460Z,22.33
2019-04-30T06:44:41.622Z,24.23
2019-04-30T06:47:09.070Z,20.20
2019-04-30T06:49:39.252Z,21.93
2019-04-30T06:52:18.213Z,19.40
2019-04-30T06:54:39.687Z,22.03
2019-04-30T06:57:09.684Z,22.20
2019-04-30T06:59:39.628Z,22.50
2019-04-30T07:02:09.122Z,20.13
2019-04-30T07:04:40.006Z,24.03
2019-04-30T07:07:09.136Z,21.20
2019-04-30T07:09:53.176Z,23.20
2019-04-30T07:12:35.734Z,21.23
2019-04-30T07:15:04.507Z,22.60
2019-04-30T07:17:33.241Z,21.97
2019-04-30T07:20:01.728Z,19.27
2019-04-30T07:22:40.206Z,21.97
2019-04-30T07:25:00.404Z,20.43
2019-04-30T07:27:30.179Z,19.07
2019-04-30T07:29:59.683Z,17.37
2019-04-30T07:32:28.827Z,17.53
2019-04-30T07:34:59.293Z,17.70
2019-04-30T07:37:29.231Z,16.47
2019-04-30T07:39:58.945Z,15.67
2019-04-30T07:42:29.488Z,15.67
2019-04-30T07:45:00.448Z,16.10
2019-04-30T07:47:29.549Z,13.93
2019-04-30T07:50:00.726Z,14.17
2019-04-30T07:52:33.314Z,13.67
2019-04-30T07:55:00.671Z,14.43
2019-04-30T07:57:29.303Z,13.90
2019-04-30T08:00:00.563Z,14.30
2019-04-30T08:02:36.949Z,13.10
2019-04-30T08:05:06.708Z,13.53
2019-04-30T08:07:35.229Z,13.53
2019-04-30T08:10:04.627Z,13.03
2019-04-30T08:12:36.358Z,14.07
2019-04-30T08:15:03.447Z,14.57
2019-04-30T08:17:31.901Z,12.47
2019-04-30T08:20:00.375Z,11.17
2019-04-30T08:22:29.729Z,13.83
2019-04-30T08:24:58.754Z,11.60
2019-04-30T08:27:29.454Z,13.67
2019-04-30T08:29:59.211Z,12.47
2019-04-30T08:32:28.947Z,11.23
2019-04-30T08:35:00.976Z,13.30
2019-04-30T08:37:28.854Z,12.20
2019-04-30T08:39:59.792Z,12.53
2019-04-30T08:42:31.776Z,9.03
2019-04-30T08:44:58.588Z,12.33
2019-04-30T08:47:29.150Z,12.70
2019-04-30T08:50:01.598Z,11.43
2019-04-30T08:52:27.638Z,11.37
2019-04-30T08:54:56.156Z,10.60
2019-04-30T08:57:24.912Z,13.37
2019-04-30T08:59:53.580Z,13.57
2019-04-30T09:02:22.064Z,11.70
2019-04-30T09:04:53.368Z,13.67
2019-04-30T09:07:21.867Z,12.57
2019-04-30T09:09:50.332Z,12.33
2019-04-30T09:12:19.578Z,12.60
2019-04-30T09:14:49.107Z,13.40
2019-04-30T09:17:19.695Z,12.60
2019-04-30T09:19:49.011Z,13.00
2019-04-30T09:22:19.408Z,11.20
2019-04-30T09:24:49.736Z,14.07
2019-04-30T09:27:19.524Z,11.23
2019-04-30T09:29:49.198Z,11.70
2019-04-30T09:32:19.364Z,12.67
2019-04-30T09:34:48.808Z,12.10
2019-04-30T09:37:18.666Z,11.23
2019-04-30T09:39:49.256Z,13.33
2019-04-30T09:42:19.443Z,13.40
2019-04-30T09:44:49.215Z,12.97
2019-04-30T09:47:19.870Z,13.20
2019-04-30T09:49:49.395Z,11.87
2019-04-30T09:52:19.119Z,13.17
2019-04-30T09:54:49.995Z,11.43
2019-04-30T09:57:19.301Z,13.17
2019-04-30T09:59:48.647Z,12.03
2019-04-30T10:02:19.088Z,11.07
2019-04-30T10:04:47.767Z,13.57
2019-04-30T10:07:16.550Z,14.33
2019-04-30T10:09:45.377Z,15.07
2019-04-30T10:12:14.890Z,13.87
2019-04-30T10:14:43.486Z,15.53
2019-04-30T10:17:19.301Z,13.83
2019-04-30T10:19:49.210Z,14.60
2019-04-30T10:22:17.968Z,13.50
2019-04-30T10:24:46.446Z,12.33
2019-04-30T10:27:15.058Z,13.40
2019-04-30T10:29:43.505Z,13.43
2019-04-30T10:32:11.967Z,14.07
2019-04-30T10:34:40.899Z,14.50
2019-04-30T10:37:09.947Z,15.70
2019-04-30T10:39:39.027Z,14.43
2019-04-30T10:42:07.585Z,13.80
2019-04-30T10:44:36.077Z,15.30
2019-04-30T10:47:04.653Z,16.10
2019-04-30T10:49:33.169Z,13.20
2019-04-30T10:52:01.724Z,11.60
2019-04-30T10:54:30.256Z,15.73
2019-04-30T10:56:59.272Z,15.73
2019-04-30T10:59:27.750Z,15.33
2019-04-30T11:01:56.241Z,16.97
2019-04-30T11:04:24.850Z,17.57
2019-04-30T11:06:53.319Z,16.47
2019-04-30T11:09:21.817Z,16.33
2019-04-30T11:11:50.289Z,15.23
2019-04-30T11:14:18.916Z,14.87
2019-04-30T11:16:51.247Z,15.67
2019-04-30T11:19:19.239Z,15.07
2019-04-30T11:21:48.085Z,14.40
2019-04-30T11:24:17.565Z,13.80
2019-04-30T11:26:50.195Z,14.10
2019-04-30T11:29:17.939Z,14.53
2019-04-30T11:31:52.548Z,13.83
2019-04-30T11:34:21.264Z,15.67
2019-04-30T11:36:49.737Z,12.57
2019-04-30T11:39:21.525Z,16.47
2019-04-30T11:41:50.101Z,13.13
2019-04-30T11:44:30.367Z,15.10
2019-04-30T11:47:16.480Z,14.87
2019-04-30T11:49:45.189Z,14.03
2019-04-30T11:52:13.646Z,15.27
2019-04-30T11:54:49.012Z,17.07
2019-04-30T11:57:13.761Z,17.40
2019-04-30T11:59:42.682Z,16.50
2019-04-30T12:02:22.107Z,17.07
2019-04-30T12:04:50.564Z,14.70
2019-04-30T12:07:25.808Z,15.33
2019-04-30T12:10:11.980Z,16.23
2019-04-30T12:12:40.460Z,17.67
2019-04-30T12:15:09.381Z,16.20
2019-04-30T12:17:37.871Z,18.37
2019-04-30T12:20:08.075Z,18.90
2019-04-30T12:22:36.555Z,17.43
2019-04-30T12:25:05.608Z,20.13
2019-04-30T12:27:34.051Z,18.83
2019-04-30T12:30:02.556Z,19.97
2019-04-30T12:32:31.004Z,18.60
2019-04-30T12:34:59.542Z,18.77
2019-04-30T12:37:29.057Z,20.23
2019-04-30T12:39:59.374Z,22.00
2019-04-30T12:42:28.738Z,20.70
2019-04-30T12:44:59.428Z,22.80
2019-04-30T12:47:29.660Z,22.23
2019-04-30T12:50:04.707Z,21.60
2019-04-30T12:52:41.027Z,21.97
2019-04-30T12:55:22.650Z,19.70
2019-04-30T12:57:58.705Z,22.80
2019-04-30T13:00:23.216Z,22.00
2019-04-30T13:02:51.786Z,21.07
2019-04-30T13:05:20.262Z,23.07
2019-04-30T13:07:50.111Z,21.33
2019-04-30T13:10:19.516Z,21.63
2019-04-30T13:12:48.615Z,20.40
2019-04-30T13:15:17.424Z,20.03
2019-04-30T13:17:46.138Z,22.83
2019-04-30T13:20:20.875Z,22.63
2019-04-30T13:22:45.471Z,22.80
2019-04-30T13:25:14.223Z,20.97
2019-04-30T13:27:46.142Z,25.93
2019-04-30T13:30:18.599Z,23.13
2019-04-30T13:32:54.051Z,23.37
2019-04-30T13:35:22.646Z,23.27
2019-04-30T13:37:59.354Z,22.50
2019-04-30T13:40:45.567Z,22.10
2019-04-30T13:43:14.499Z,22.40
2019-04-30T13:45:42.989Z,23.40
2019-04-30T13:48:11.501Z,26.33
2019-04-30T13:50:39.950Z,25.37
2019-04-30T13:53:08.974Z,28.17
2019-04-30T13:55:45.691Z,25.73
2019-04-30T13:58:07.755Z,24.10
2019-04-30T14:00:36.221Z,24.30
2019-04-30T14:03:12.062Z,22.77
2019-04-30T14:05:40.754Z,23.37
2019-04-30T14:08:28.846Z,21.87
2019-04-30T14:10:59.068Z,22.80
2019-04-30T14:13:27.798Z,26.67
2019-04-30T14:15:56.361Z,21.20
2019-04-30T14:18:30.952Z,23.77
2019-04-30T14:20:55.026Z,20.63
2019-04-30T14:23:23.550Z,22.77
2019-04-30T14:25:56.779Z,23.93
2019-04-30T14:28:22.690Z,22.43
2019-04-30T14:30:51.407Z,25.63
2019-04-30T14:33:26.367Z,22.20
2019-04-30T14:35:50.581Z,23.90
2019-04-30T14:38:19.160Z,25.83
2019-04-30T14:40:50.418Z,23.77
2019-04-30T14:43:52.677Z,25.43
2019-04-30T14:46:40.985Z,24.57
2019-04-30T14:49:32.578Z,23.93
2019-04-30T14:52:01.590Z,22.63
2019-04-30T14:54:52.095Z,23.47
2019-04-30T14:57:42.831Z,20.33
2019-04-30T15:00:32.534Z,24.10
2019-04-30T15:03:06.716Z,24.20
2019-04-30T15:05:40.529Z,24.73
2019-04-30T15:08:05.968Z,24.90
2019-04-30T15:10:34.454Z,22.57
2019-04-30T15:13:02.965Z,23.53
2019-04-30T15:15:31.844Z,20.50
2019-04-30T15:18:00.351Z,22.93
2019-04-30T15:20:29.634Z,21.23
2019-04-30T15:23:21.867Z,23.03
2019-04-30T15:25:50.624Z,22.10
2019-04-30T15:28:19.329Z,22.10
2019-04-30T15:30:48.901Z,22.33
2019-04-30T15:33:27.607Z,24.67
2019-04-30T15:35:56.094Z,22.10
2019-04-30T15:38:43.611Z,23.17
2019-04-30T15:41:12.081Z,23.00
2019-04-30T15:43:40.663Z,21.47
2019-04-30T15:46:09.403Z,22.97
2019-04-30T15:48:37.867Z,22.40
2019-04-30T15:51:06.342Z,22.23
2019-04-30T15:53:34.971Z,24.17
2019-04-30T15:56:03.600Z,25.40
2019-04-30T15:58:33.955Z,24.33
2019-04-30T16:01:03.643Z,21.20
2019-04-30T16:03:33.755Z,25.40
2019-04-30T16:06:03.547Z,24.17
2019-04-30T16:08:40.406Z,24.20
2019-04-30T16:11:26.479Z,25.40
2019-04-30T16:14:20.160Z,22.40
2019-04-30T16:16:56.383Z,23.47
2019-04-30T16:19:24.961Z,23.43
2019-04-30T16:21:53.484Z,23.80
2019-04-30T16:24:22.214Z,23.73
2019-04-30T16:26:52.799Z,24.60
2019-04-30T16:29:21.202Z,23.87
2019-04-30T16:31:49.692Z,20.77
2019-04-30T16:34:18.347Z,24.17
2019-04-30T16:36:46.816Z,25.73
2019-04-30T16:39:15.355Z,24.00
2019-04-30T16:41:44.094Z,23.90
2019-04-30T16:44:12.631Z,26.50
2019-04-30T16:46:41.130Z,25.10
2019-04-30T16:49:11.128Z,23.33
2019-04-30T16:51:40.514Z,25.17
2019-04-30T16:54:09.000Z,25.93
2019-04-30T16:56:38.668Z,27.00
2019-04-30T16:59:09.623Z,26.10
2019-04-30T17:01:38.150Z,26.23
2019-04-30T17:04:29.093Z,25.13
2019-04-30T17:07:18.649Z,26.40
2019-04-30T17:09:54.418Z,21.13
2019-04-30T17:12:38.749Z,25.90
2019-04-30T17:15:15.940Z,27.83
2019-04-30T17:17:44.410Z,24.97
2019-04-30T17:20:13.560Z,25.40
2019-04-30T17:22:42.029Z,21.53
2019-04-30T17:25:10.492Z,28.17
2019-04-30T17:27:39.357Z,27.50
2019-04-30T17:30:09.325Z,29.50
2019-04-30T17:32:39.475Z,26.00
2019-04-30T17:35:09.040Z,28.30
2019-04-30T17:37:37.589Z,27.20
2019-04-30T17:40:06.118Z,30.70
2019-04-30T17:42:34.599Z,30.50
2019-04-30T17:45:03.353Z,28.13
2019-04-30T17:47:31.851Z,29.03
2019-04-30T17:50:00.507Z,26.60
2019-04-30T17:52:29.845Z,28.63
2019-04-30T17:54:59.527Z,29.67
2019-04-30T17:57:32.200Z,26.90
2019-04-30T17:59:59.145Z,27.03
2019-04-30T18:02:29.450Z,27.73
2019-04-30T18:04:58.262Z,27.83
2019-04-30T18:07:27.306Z,25.80
2019-04-30T18:09:55.888Z,27.17
2019-04-30T18:12:24.372Z,26.60
2019-04-30T18:14:52.936Z,28.33
2019-04-30T18:17:22.209Z,25.73
2019-04-30T18:20:10.980Z,25.17
2019-04-30T18:22:56.464Z,21.97
2019-04-30T18:25:38.981Z,24.73
2019-04-30T18:28:09.136Z,24.70
2019-04-30T18:30:39.167Z,23.33
2019-04-30T18:33:09.694Z,26.10
2019-04-30T18:35:38.812Z,25.77
2019-04-30T18:38:07.383Z,26.70
2019-04-30T18:40:35.824Z,24.13
2019-04-30T18:43:04.322Z,24.73
2019-04-30T18:45:32.797Z,22.97
2019-04-30T18:48:01.829Z,21.77
2019-04-30T18:50:30.490Z,24.40
2019-04-30T18:53:00.735Z,31.90
2019-04-30T18:55:29.224Z,24.00
2019-04-30T18:58:01.257Z,28.10
2019-04-30T19:00:34.544Z,22.33
2019-04-30T19:03:03.039Z,22.97
2019-04-30T19:05:31.587Z,23.87
2019-04-30T19:08:05.334Z,27.90
2019-04-30T19:10:52.104Z,25.93
2019-04-30T19:13:32.635Z,25.00
2019-04-30T19:16:29.225Z,27.13
2019-04-30T19:19:06.982Z,27.50
2019-04-30T19:21:35.931Z,26.33
2019-04-30T19:24:04.565Z,30.33
2019-04-30T19:26:33.205Z,25.40
2019-04-30T19:29:01.975Z,27.10
2019-04-30T19:31:30.465Z,22.60
2019-04-30T19:33:59.161Z,30.20
2019-04-30T19:36:35.089Z,27.90
2019-04-30T19:38:59.773Z,26.20
2019-04-30T19:41:28.760Z,29.23
2019-04-30T19:43:57.483Z,24.13
2019-04-30T19:46:25.941Z,27.33
2019-04-30T19:48:54.409Z,27.67
2019-04-30T19:51:22.916Z,30.23
2019-04-30T19:53:51.747Z,27.83
2019-04-30T19:56:20.672Z,26.63
2019-04-30T19:59:01.792Z,27.33
2019-04-30T20:01:19.631Z,27.43
2019-04-30T20:03:48.236Z,27.70
2019-04-30T20:06:16.806Z,27.33
2019-04-30T20:08:45.284Z,28.23
2019-04-30T20:11:13.735Z,31.13
2019-04-30T20:13:42.775Z,28.00
2019-04-30T20:16:11.275Z,29.60
2019-04-30T20:18:39.879Z,32.00
2019-04-30T20:21:12.362Z,28.57
2019-04-30T20:23:41.045Z,27.23
2019-04-30T20:26:09.637Z,30.20
2019-04-30T20:28:41.699Z,31.90
2019-04-30T20:31:08.989Z,26.63
2019-04-30T20:33:38.971Z,33.10
2019-04-30T20:36:09.231Z,29.77
2019-04-30T20:39:02.710Z,30.37
2019-04-30T20:41:32.247Z,35.50
2019-04-30T20:44:00.888Z,35.63
2019-04-30T20:46:34.766Z,31.97
2019-04-30T20:48:59.921Z,40.90
2019-04-30T20:51:29.144Z,35.10
2019-04-30T20:53:59.228Z,37.33
2019-04-30T20:56:29.150Z,36.17
2019-04-30T20:59:02.588Z,34.40
2019-04-30T21:01:29.415Z,31.10
2019-04-30T21:03:57.944Z,33.87
2019-04-30T21:06:26.412Z,37.30
2019-04-30T21:08:55.308Z,36.93
2019-04-30T21:11:23.773Z,36.60
2019-04-30T21:13:52.263Z,38.90
2019-04-30T21:16:20.759Z,40.23
2019-04-30T21:18:49.251Z,43.50
2019-04-30T21:21:18.607Z,45.03
2019-04-30T21:23:49.167Z,40.33
2019-04-30T21:26:19.643Z,42.77
2019-04-30T21:28:49.485Z,42.40
2019-04-30T21:31:36.093Z,46.43
2019-04-30T21:34:12.710Z,42.13
2019-04-30T21:36:41.189Z,39.33
2019-04-30T21:39:09.891Z,42.50
2019-04-30T21:41:39.568Z,40.97
2019-04-30T21:44:08.066Z,41.60
2019-04-30T21:46:37.597Z,47.53
2019-04-30T21:49:08.854Z,41.03
2019-04-30T21:51:40.012Z,46.03
2019-04-30T21:54:07.873Z,47.97
2019-04-30T21:56:36.352Z,46.63
2019-04-30T21:59:04.896Z,39.63
2019-04-30T22:01:33.591Z,44.90
2019-04-30T22:04:02.042Z,40.90
2019-04-30T22:06:30.540Z,36.67
2019-04-30T22:08:59.184Z,43.37
2019-04-30T22:11:29.675Z,37.50
2019-04-30T22:13:58.123Z,39.00
2019-04-30T22:16:26.614Z,38.87
2019-04-30T22:18:55.074Z,34.87
2019-04-30T22:21:23.582Z,34.53
2019-04-30T22:23:52.103Z,32.33
2019-04-30T22:26:20.841Z,35.73
2019-04-30T22:28:49.546Z,39.33
2019-04-30T22:31:19.796Z,31.77
2019-04-30T22:33:49.095Z,34.67
2019-04-30T22:36:29.079Z,29.13
2019-04-30T22:39:29.979Z,34.37
2019-04-30T22:42:19.099Z,33.50
2019-04-30T22:44:47.635Z,35.27
2019-04-30T22:47:16.347Z,25.10
2019-04-30T22:49:44.857Z,28.00
2019-04-30T22:52:13.409Z,25.93
2019-04-30T22:54:42.120Z,23.73
2019-04-30T22:57:10.599Z,29.50
2019-04-30T22:59:49.509Z,32.97
2019-04-30T23:02:16.074Z,31.17
2019-04-30T23:04:45.869Z,28.67
2019-04-30T23:07:14.490Z,28.47
2019-04-30T23:09:43.289Z,33.17
2019-04-30T23:12:11.915Z,24.73
2019-04-30T23:14:40.671Z,27.03
2019-04-30T23:17:09.386Z,30.00
2019-04-30T23:19:37.878Z,26.70
2019-04-30T23:22:06.348Z,30.70
2019-04-30T23:24:34.823Z,27.17
2019-04-30T23:27:03.294Z,28.00
2019-04-30T23:29:31.829Z,30.27
2019-04-30T23:32:00.552Z,27.97
2019-04-30T23:34:29.134Z,27.97
2019-04-30T23:36:57.859Z,29.50
2019-04-30T23:39:26.330Z,29.67
2019-04-30T23:41:54.801Z,27.30
2019-04-30T23:44:23.267Z,28.73
2019-04-30T23:46:51.753Z,27.73
2019-04-30T23:49:20.212Z,25.90
2019-04-30T23:51:50.517Z,32.47
2019-04-30T23:54:19.149Z,26.87
2019-04-30T23:56:47.651Z,26.57
2019-04-30T23:59:16.114Z,26.97
